Time;durP1;ratioP1;P1;durP2;ratioP2;P2;SDS_P1;SDS_P2;PMS_P1;PMS_P2;Temp;Humidity;BMP_temperature;BMP_pressure;BME280_temperature;BME280_humidity;BME280_pressure;Samples;Min_cycle;Max_cycle;Signal;HPM_P1;HPM_P2
2022/10/17 00:01:42;;;;;;;12.00;7.68;;;;;;;20.99;100.00;101426.94;5010112;28;20037;-54
2022/10/17 00:04:07;;;;;;;14.57;7.80;;;;;;;21.00;100.00;101426.72;4997264;28;20066;-48
2022/10/17 00:06:34;;;;;;;12.98;7.93;;;;;;;20.92;100.00;101422.53;5007485;28;20031;-49
2022/10/17 00:08:59;;;;;;;13.97;9.10;;;;;;;21.03;100.00;101414.50;5005945;28;20052;-51
2022/10/17 00:11:26;;;;;;;14.07;7.85;;;;;;;21.06;100.00;101412.09;5000525;28;20272;-50
2022/10/17 00:13:54;;;;;;;14.03;8.00;;;;;;;21.12;100.00;101415.72;5006998;28;20056;-48
2022/10/17 00:16:28;;;;;;;16.30;7.97;;;;;;;21.14;100.00;101407.28;4994831;28;20291;-52
2022/10/17 00:18:53;;;;;;;12.07;7.37;;;;;;;21.04;100.00;101407.97;4993710;28;20292;-52
2022/10/17 00:21:20;;;;;;;12.77;8.00;;;;;;;20.85;100.00;101411.00;5011268;28;20670;-53
2022/10/17 00:23:46;;;;;;;13.43;8.17;;;;;;;20.85;100.00;101410.19;4994156;28;20038;-55
2022/10/17 00:26:13;;;;;;;17.88;8.55;;;;;;;20.86;100.00;101417.25;4996697;28;20292;-52
2022/10/17 00:28:39;;;;;;;15.10;8.03;;;;;;;20.82;100.00;101410.69;5000189;28;20042;-53
2022/10/17 00:31:06;;;;;;;16.35;7.07;;;;;;;20.73;100.00;101416.50;4997621;28;20283;-49
2022/10/17 00:33:34;;;;;;;14.30;8.20;;;;;;;20.80;100.00;101407.41;5017710;28;20040;-49
2022/10/17 00:36:05;;;;;;;10.77;7.40;;;;;;;20.71;100.00;101399.63;5008761;28;20306;-50
2022/10/17 00:38:30;;;;;;;14.27;7.87;;;;;;;20.82;100.00;101405.25;5001882;28;20273;-53
2022/10/17 00:40:56;;;;;;;18.45;7.90;;;;;;;20.69;100.00;101404.50;5000692;28;20307;-51
2022/10/17 00:43:21;;;;;;;15.32;7.53;;;;;;;20.86;100.00;101400.97;4988290;28;20039;-48
2022/10/17 00:45:47;;;;;;;16.98;8.25;;;;;;;20.91;100.00;101403.72;5013132;28;20027;-50
2022/10/17 00:48:15;;;;;;;15.63;8.75;;;;;;;20.78;100.00;101404.88;5008582;28;20160;-53
2022/10/17 00:50:44;;;;;;;16.97;8.10;;;;;;;20.84;100.00;101403.09;5011431;28;20077;-51
2022/10/17 00:53:10;;;;;;;13.20;8.50;;;;;;;20.87;100.00;101397.97;5015762;28;20269;-52
2022/10/17 00:55:50;;;;;;;15.60;8.35;;;;;;;20.71;100.00;101394.19;5012342;28;20315;-50
2022/10/17 00:58:17;;;;;;;13.77;8.20;;;;;;;20.72;100.00;101390.41;5002606;28;20038;-52
2022/10/17 01:00:45;;;;;;;12.77;8.00;;;;;;;20.64;100.00;101382.69;5012562;28;20061;-54
2022/10/17 01:03:11;;;;;;;17.07;9.27;;;;;;;20.40;100.00;101385.59;5013405;28;20348;-51
2022/10/17 01:05:38;;;;;;;14.85;8.63;;;;;;;20.47;100.00;101388.97;5006055;28;20256;-50
2022/10/17 01:08:04;;;;;;;18.77;9.10;;;;;;;20.51;100.00;101388.47;5009170;28;20042;-49
2022/10/17 01:10:39;;;;;;;21.63;9.18;;;;;;;20.58;100.00;101384.50;5006245;28;20308;-51
2022/10/17 01:13:23;;;;;;;16.33;9.77;;;;;;;20.50;100.00;101382.22;5002455;28;20045;-50
2022/10/17 01:16:17;;;;;;;18.73;9.23;;;;;;;20.50;100.00;101371.34;5004216;28;20284;-53
2022/10/17 01:19:40;;;;;;;16.63;9.37;;;;;;;20.51;100.00;101366.72;5005892;28;20294;-50
2022/10/17 01:22:17;;;;;;;14.90;9.50;;;;;;;20.62;100.00;101365.81;5000787;28;20276;-52
2022/10/17 01:24:57;;;;;;;17.43;9.77;;;;;;;20.62;100.00;101363.91;5003516;28;20288;-50
2022/10/17 01:27:35;;;;;;;13.73;9.07;;;;;;;20.66;100.00;101368.88;5003776;28;20345;-53
2022/10/17 01:30:28;;;;;;;18.93;9.30;;;;;;;20.69;100.00;101369.16;5007156;28;20026;-53
2022/10/17 01:33:12;;;;;;;19.10;10.17;;;;;;;20.51;100.00;101373.00;5012220;28;20058;-52
2022/10/17 01:36:07;;;;;;;14.90;9.67;;;;;;;20.46;100.00;101371.03;5015188;28;20285;-51
2022/10/17 01:38:42;;;;;;;20.87;10.43;;;;;;;20.74;100.00;101380.09;4987222;28;20269;-49
2022/10/17 01:41:31;;;;;;;16.00;10.70;;;;;;;20.47;100.00;101386.25;4995329;28;20280;-52
2022/10/17 01:44:07;;;;;;;21.75;10.60;;;;;;;20.55;100.00;101384.19;5017813;28;20353;-51
2022/10/17 01:46:37;;;;;;;17.50;9.60;;;;;;;20.66;100.00;101379.72;5004014;28;20027;-50
2022/10/17 01:49:07;;;;;;;15.80;10.20;;;;;;;20.69;100.00;101368.38;5000764;28;20295;-51
2022/10/17 01:51:57;;;;;;;16.23;10.00;;;;;;;20.51;100.00;101355.84;5005119;28;20261;-51
2022/10/17 01:54:42;;;;;;;19.77;10.40;;;;;;;20.55;100.00;101357.03;5004479;28;20264;-48
2022/10/17 01:57:17;;;;;;;17.40;10.77;;;;;;;20.80;100.00;101342.97;4999744;28;20311;-48
2022/10/17 01:59:48;;;;;;;23.87;10.73;;;;;;;20.55;100.00;101355.13;4998859;28;20907;-54
2022/10/17 02:02:17;;;;;;;21.13;9.93;;;;;;;20.56;100.00;101358.69;5012733;28;20280;-51
2022/10/17 02:04:44;;;;;;;21.77;10.87;;;;;;;20.53;100.00;101353.72;4996300;28;20349;-50
2022/10/17 02:07:11;;;;;;;17.97;10.57;;;;;;;20.17;100.00;101354.84;5000038;28;20273;-49
2022/10/17 02:09:38;;;;;;;18.67;9.67;;;;;;;20.26;100.00;101354.41;5008046;28;20272;-53
2022/10/17 02:12:39;;;;;;;21.85;11.07;;;;;;;19.89;100.00;101355.69;5014922;28;20292;-53
2022/10/17 02:15:38;;;;;;;22.60;11.53;;;;;;;20.12;100.00;101346.63;4997788;28;20026;-50
2022/10/17 02:18:35;;;;;;;17.73;10.13;;;;;;;20.40;100.00;101349.47;5005049;28;20292;-52
2022/10/17 02:21:17;;;;;;;18.80;11.27;;;;;;;20.34;100.00;101345.88;5002068;28;20285;-49
2022/10/17 02:24:00;;;;;;;23.20;11.07;;;;;;;20.07;100.00;101338.41;5010286;28;20310;-52
2022/10/17 02:26:33;;;;;;;24.37;11.33;;;;;;;20.11;100.00;101333.28;5013507;28;20272;-52
2022/10/17 02:29:24;;;;;;;17.23;11.90;;;;;;;20.07;100.00;101330.25;4997056;28;20277;-50
2022/10/17 02:32:07;;;;;;;20.90;11.60;;;;;;;20.08;100.00;101331.06;4998741;28;20536;-48
2022/10/17 02:34:39;;;;;;;20.10;11.53;;;;;;;20.24;100.00;101330.25;5001648;28;20275;-52
2022/10/17 02:37:07;;;;;;;20.43;10.93;;;;;;;20.13;100.00;101320.28;5008760;28;20285;-53
2022/10/17 02:39:34;;;;;;;21.17;11.87;;;;;;;20.01;100.00;101326.63;5014718;28;20307;-52
2022/10/17 02:42:04;;;;;;;24.50;12.03;;;;;;;20.08;100.00;101331.06;5004172;28;20289;-51
2022/10/17 02:44:31;;;;;;;22.83;12.07;;;;;;;20.09;100.00;101328.13;4990490;28;20308;-52
2022/10/17 02:47:17;;;;;;;17.93;12.37;;;;;;;20.08;100.00;101328.34;5002080;28;20261;-51
2022/10/17 02:49:48;;;;;;;21.13;12.33;;;;;;;19.88;100.00;101330.47;5015580;28;20282;-55
2022/10/17 02:52:17;;;;;;;21.47;12.70;;;;;;;20.12;100.00;101333.06;5061682;28;20273;-50
2022/10/17 02:54:59;;;;;;;24.43;12.57;;;;;;;20.05;100.00;101329.66;5060448;28;20280;-54
2022/10/17 02:57:30;;;;;;;22.17;13.03;;;;;;;20.16;100.00;101334.19;5060782;28;20266;-50
2022/10/17 02:59:58;;;;;;;17.93;12.00;;;;;;;20.05;100.00;101332.38;5063286;28;20277;-53
2022/10/17 03:02:24;;;;;;;26.20;12.50;;;;;;;20.24;100.00;101332.97;5063145;28;20274;-52
2022/10/17 03:04:49;;;;;;;21.03;11.57;;;;;;;20.40;100.00;101338.59;5062268;28;20278;-52
2022/10/17 03:07:15;;;;;;;24.50;11.98;;;;;;;20.81;100.00;101344.63;5059094;28;20278;-53
2022/10/17 03:09:41;;;;;;;16.80;12.18;;;;;;;20.34;100.00;101341.25;5060924;28;20037;-55
2022/10/17 03:12:07;;;;;;;22.00;12.70;;;;;;;20.34;100.00;101346.66;5064821;28;20080;-53
2022/10/17 03:14:34;;;;;;;;;;;;;;;20.39;100.00;101348.66;5063376;28;20040;-52
2022/10/17 03:17:01;;;;;;;20.50;11.85;;;;;;;20.28;100.00;101336.81;5057956;28;20020;-49
2022/10/17 03:19:26;;;;;;;21.70;12.18;;;;;;;20.39;100.00;101343.22;5063784;28;20089;-48
2022/10/17 03:21:52;;;;;;;22.10;13.00;;;;;;;20.65;100.00;101342.78;5063879;28;20068;-51
2022/10/17 03:24:17;;;;;;;20.20;11.03;;;;;;;20.47;100.00;101329.19;5055900;28;20033;-52
2022/10/17 03:26:43;;;;;;;19.67;10.70;;;;;;;20.90;100.00;101328.69;5055790;28;20033;-51
2022/10/17 03:29:08;;;;;;;20.63;11.47;;;;;;;20.49;100.00;101340.63;5058069;28;20043;-52
2022/10/17 03:31:35;;;;;;;18.17;11.10;;;;;;;20.70;100.00;101340.13;5068309;28;20270;-52
2022/10/17 03:34:02;;;;;;;18.83;11.63;;;;;;;20.46;100.00;101337.63;5061324;28;20040;-51
2022/10/17 03:36:28;;;;;;;21.93;10.80;;;;;;;20.48;100.00;101344.44;5065735;28;20093;-52
2022/10/17 03:38:54;;;;;;;18.75;11.35;;;;;;;20.57;100.00;101335.88;5062944;28;20273;-51
2022/10/17 03:41:21;;;;;;;18.20;10.90;;;;;;;20.79;100.00;101344.03;5052347;28;20038;-52
2022/10/17 03:43:47;;;;;;;18.52;11.63;;;;;;;20.62;100.00;101341.38;5059399;28;20053;-51
2022/10/17 03:46:12;;;;;;;21.05;10.98;;;;;;;20.93;100.00;101352.66;5061166;28;20029;-49
2022/10/17 03:48:38;;;;;;;19.63;11.40;;;;;;;20.66;100.00;101349.84;5062292;28;20029;-50
2022/10/17 03:51:07;;;;;;;19.83;10.60;;;;;;;21.00;100.00;101347.88;4988985;28;20051;-49
2022/10/17 03:53:38;;;;;;;25.23;11.13;;;;;;;21.03;100.00;101350.06;4986144;28;20034;-54
2022/10/17 03:56:14;;;;;;;20.27;11.05;;;;;;;20.69;100.00;101344.72;4977619;28;20066;-55
2022/10/17 03:58:41;;;;;;;20.23;10.73;;;;;;;20.50;100.00;101338.75;4981705;28;20043;-53
2022/10/17 04:01:10;;;;;;;18.57;11.73;;;;;;;20.56;100.00;101329.59;4973427;28;20269;-54
2022/10/17 04:03:37;;;;;;;20.40;10.87;;;;;;;20.57;100.00;101328.53;4981140;28;20116;-52
2022/10/17 04:06:03;;;;;;;;;;;;;;;20.74;100.00;101339.34;4990168;28;20090;-50
2022/10/17 04:08:32;;;;;;;20.13;11.20;;;;;;;20.80;100.00;101347.59;4973131;28;19950;-54
2022/10/17 04:11:13;;;;;;;19.30;10.50;;;;;;;20.86;100.00;101362.91;4979638;28;20095;-53
2022/10/17 04:13:39;;;;;;;20.57;11.60;;;;;;;20.80;100.00;101369.34;4966598;28;20057;-50
2022/10/17 04:16:09;;;;;;;19.70;10.35;;;;;;;20.62;100.00;101371.25;4988644;28;20043;-52
2022/10/17 04:18:40;;;;;;;18.33;11.27;;;;;;;20.76;100.00;101371.72;4976920;28;20031;-51
2022/10/17 04:21:07;;;;;;;24.63;10.97;;;;;;;20.83;100.00;101377.00;4982504;28;20031;-50
2022/10/17 04:23:33;;;;;;;25.05;11.75;;;;;;;20.84;100.00;101376.72;4974259;28;20026;-50
2022/10/17 04:26:08;;;;;;;20.38;10.95;;;;;;;20.85;100.00;101367.50;4979787;28;20037;-54
2022/10/17 04:28:34;;;;;;;18.77;10.85;;;;;;;20.84;100.00;101365.84;4974209;28;20058;-50
2022/10/17 04:31:02;;;;;;;17.85;10.27;;;;;;;20.92;100.00;101375.47;4979399;28;20045;-57
2022/10/17 04:33:34;;;;;;;16.43;10.43;;;;;;;21.21;100.00;101380.72;4986877;28;20033;-55
2022/10/17 04:36:03;;;;;;;22.03;12.00;;;;;;;21.43;100.00;101382.59;4974854;28;20039;-52
2022/10/17 04:38:30;;;;;;;25.13;11.90;;;;;;;21.32;100.00;101403.41;4974701;28;20027;-49
2022/10/17 04:41:03;;;;;;;23.57;11.53;;;;;;;21.30;100.00;101398.25;4978218;28;20031;-50
2022/10/17 04:43:34;;;;;;;18.37;11.07;;;;;;;21.24;100.00;101395.72;4978972;28;20031;-52
2022/10/17 04:46:02;;;;;;;18.77;12.07;;;;;;;21.17;100.00;101395.91;4974807;28;20062;-52
2022/10/17 04:48:28;;;;;;;18.27;11.90;;;;;;;21.23;100.00;101402.22;4982632;28;20042;-50
2022/10/17 04:51:00;;;;;;;16.58;10.45;;;;;;;20.96;100.00;101411.94;4972789;28;20058;-50
2022/10/17 04:53:36;;;;;;;26.83;12.60;;;;;;;21.05;100.00;101410.47;4977015;28;20032;-50
2022/10/17 04:56:12;;;;;;;16.63;10.13;;;;;;;21.28;100.00;101408.56;4977499;28;20103;-53
2022/10/17 04:58:39;;;;;;;17.43;11.20;;;;;;;21.01;100.00;101405.78;4973792;28;20023;-52
2022/10/17 05:01:05;;;;;;;;;;;;;;;21.16;100.00;101408.69;4979956;28;20107;-54
2022/10/17 05:03:31;;;;;;;24.67;11.40;;;;;;;21.12;100.00;101410.28;4980906;28;19941;-55
2022/10/17 05:05:57;;;;;;;21.67;11.40;;;;;;;21.32;100.00;101419.72;4973240;28;20090;-48
2022/10/17 05:08:22;;;;;;;15.98;11.23;;;;;;;21.12;100.00;101415.72;4976931;28;20043;-52
2022/10/17 05:10:49;;;;;;;22.60;11.37;;;;;;;20.99;100.00;101422.34;4975823;28;20043;-52
2022/10/17 05:13:15;;;;;;;25.08;11.60;;;;;;;21.04;100.00;101418.84;4977263;28;20039;-53
2022/10/17 05:15:40;;;;;;;16.27;10.57;;;;;;;20.95;100.00;101415.75;4981882;28;20042;-52
2022/10/17 05:18:06;;;;;;;17.70;9.85;;;;;;;20.80;100.00;101407.41;4972017;28;20031;-49
2022/10/17 05:20:33;;;;;;;25.27;11.97;;;;;;;20.70;100.00;101411.56;4977965;28;20035;-52
2022/10/17 05:23:00;;;;;;;18.33;10.87;;;;;;;20.86;100.00;101409.13;4983040;28;20043;-50
2022/10/17 05:25:30;;;;;;;18.03;10.73;;;;;;;20.81;100.00;101398.19;4986263;28;20108;-51
2022/10/17 05:27:56;;;;;;;20.88;10.88;;;;;;;20.72;100.00;101409.44;4978340;28;20035;-51
2022/10/17 05:30:21;;;;;;;20.67;10.82;;;;;;;20.92;100.00;101416.25;4977298;28;20043;-52
2022/10/17 05:32:53;;;;;;;21.60;11.63;;;;;;;21.08;100.00;101409.13;4973809;28;20023;-53
2022/10/17 05:35:19;;;;;;;24.03;11.83;;;;;;;21.19;100.00;101418.22;4986816;28;20037;-52
2022/10/17 05:37:45;;;;;;;17.27;10.57;;;;;;;20.96;100.00;101422.81;4987742;28;20031;-56
2022/10/17 05:40:11;;;;;;;17.30;11.27;;;;;;;20.91;100.00;101423.59;4979453;28;20039;-53
2022/10/17 05:42:39;;;;;;;23.67;10.93;;;;;;;20.81;100.00;101417.19;4981589;28;20042;-55
2022/10/17 05:45:07;;;;;;;18.87;10.97;;;;;;;21.09;100.00;101413.47;4979437;28;20100;-56
2022/10/17 05:47:32;;;;;;;22.35;12.10;;;;;;;21.08;100.00;101419.19;4967998;28;20084;-56
2022/10/17 05:49:58;;;;;;;24.00;10.88;;;;;;;21.15;100.00;101425.25;5009249;28;20041;-55
2022/10/17 05:52:30;;;;;;;18.47;10.27;;;;;;;21.10;100.00;101430.63;5057378;28;20029;-53
2022/10/17 05:55:22;;;;;;;16.07;10.77;;;;;;;20.93;100.00;101420.63;5055983;28;20139;-54
2022/10/17 05:57:51;;;;;;;23.20;11.13;;;;;;;20.80;100.00;101421.81;5062738;28;20088;-54
2022/10/17 06:00:17;;;;;;;22.73;12.27;;;;;;;20.78;100.00;101422.03;5064572;28;20493;-53
2022/10/17 06:02:50;;;;;;;18.07;10.67;;;;;;;20.92;100.00;101424.41;5051600;28;20056;-55
2022/10/17 06:05:18;;;;;;;20.87;11.47;;;;;;;20.98;100.00;101426.13;5056862;28;20108;-52
2022/10/17 06:07:43;;;;;;;21.60;11.35;;;;;;;20.81;100.00;101431.59;5063402;28;20112;-53
2022/10/17 06:10:15;;;;;;;16.90;10.83;;;;;;;20.83;100.00;101431.38;5058164;28;20034;-53
2022/10/17 06:12:42;;;;;;;19.13;12.07;;;;;;;20.87;100.00;101424.34;5057557;28;20117;-56
2022/10/17 06:15:08;;;;;;;17.33;9.82;;;;;;;20.74;100.00;101429.03;5064291;28;20043;-56
2022/10/17 06:17:34;;;;;;;16.73;9.57;;;;;;;20.96;100.00;101428.25;5065492;28;20070;-51
2022/10/17 06:19:59;;;;;;;15.82;9.90;;;;;;;20.93;100.00;101439.66;5067209;28;20049;-55
2022/10/17 06:22:25;;;;;;;16.43;9.50;;;;;;;20.77;100.00;101435.84;5056485;28;20108;-53
2022/10/17 06:24:52;;;;;;;15.77;9.95;;;;;;;20.77;100.00;101438.56;5064190;28;20033;-54
2022/10/17 06:27:18;;;;;;;21.27;10.07;;;;;;;20.98;100.00;101436.19;5061270;28;20056;-54
2022/10/17 06:29:46;;;;;;;14.33;9.37;;;;;;;20.96;100.00;101439.13;5067208;28;20105;-53
2022/10/17 06:32:12;;;;;;;17.70;9.67;;;;;;;20.87;100.00;101435.22;5058162;28;20043;-51
2022/10/17 06:34:39;;;;;;;17.03;9.80;;;;;;;21.14;100.00;101448.09;5065268;28;20021;-55
2022/10/17 06:37:05;;;;;;;21.23;12.50;;;;;;;21.05;100.00;101447.69;5056277;28;20044;-55
2022/10/17 06:39:37;;;;;;;23.13;11.33;;;;;;;21.28;100.00;101452.09;5061632;28;20034;-52
2022/10/17 06:42:07;;;;;;;22.13;11.97;;;;;;;21.58;100.00;101450.78;5056808;28;20040;-59
2022/10/17 06:44:45;;;;;;;17.00;9.70;;;;;;;21.24;100.00;101461.81;5066343;28;20025;-56
2022/10/17 06:47:36;;;;;;;22.93;10.00;;;;;;;21.31;100.00;101472.50;5047076;28;20025;-59
2022/10/17 06:50:12;;;;;;;16.98;9.25;;;;;;;21.26;100.00;101476.00;5006985;28;20047;-54
2022/10/17 06:52:43;;;;;;;22.87;10.10;;;;;;;21.33;100.00;101471.19;4967954;28;20039;-56
2022/10/17 06:55:52;;;;;;;17.23;9.33;;;;;;;21.35;100.00;101469.03;4893824;28;20104;-53
2022/10/17 06:58:38;;;;;;;14.07;8.83;;;;;;;21.26;100.00;101481.44;4881804;29;20037;-53
2022/10/17 07:01:12;;;;;;;18.47;9.47;;;;;;;21.53;100.00;101475.22;4939554;28;20046;-50
2022/10/17 07:03:39;;;;;;;23.13;9.90;;;;;;;21.68;100.00;101481.94;4965091;28;20034;-50
2022/10/17 07:06:05;;;;;;;13.20;9.13;;;;;;;21.53;100.00;101490.72;4962497;28;20039;-51
2022/10/17 07:08:31;;;;;;;14.50;8.25;;;;;;;21.32;100.00;101491.28;4962842;28;20103;-52
2022/10/17 07:11:12;;;;;;;15.93;8.83;;;;;;;21.49;100.00;101490.44;4966221;28;20046;-54
2022/10/17 07:13:37;;;;;;;16.77;8.10;;;;;;;21.63;100.00;101488.94;4964875;28;20039;-54
2022/10/17 07:16:03;;;;;;;17.55;8.43;;;;;;;21.77;100.00;101496.75;4967630;28;20032;-53
2022/10/17 07:18:30;;;;;;;21.47;8.97;;;;;;;21.53;100.00;101496.16;4963892;28;20089;-54
2022/10/17 07:20:55;;;;;;;24.30;8.65;;;;;;;21.71;100.00;101492.34;4975947;28;20090;-52
2022/10/17 07:23:21;;;;;;;15.65;8.15;;;;;;;21.67;100.00;101489.31;4973507;28;20106;-53
2022/10/17 07:25:47;;;;;;;12.25;7.68;;;;;;;22.08;100.00;101488.91;4991671;28;20069;-51
2022/10/17 07:28:15;;;;;;;14.90;8.63;;;;;;;21.95;100.00;101497.50;4974246;28;20061;-50
2022/10/17 07:30:40;;;;;;;19.33;8.33;;;;;;;21.90;100.00;101495.53;4979216;28;20039;-54
2022/10/17 07:33:10;;;;;;;16.20;7.43;;;;;;;21.75;100.00;101499.72;4974260;28;20023;-52
2022/10/17 07:35:39;;;;;;;16.45;8.55;;;;;;;21.99;100.00;101499.44;4975706;28;20062;-54
2022/10/17 07:38:05;;;;;;;14.23;8.20;;;;;;;22.15;100.00;101503.16;4978500;28;20039;-54
2022/10/17 07:40:30;;;;;;;13.65;8.00;;;;;;;22.19;100.00;101508.88;4974834;28;20047;-50
2022/10/17 07:42:56;;;;;;;18.45;10.80;;;;;;;22.30;100.00;101523.44;4974624;28;20069;-52
2022/10/17 07:45:26;;;;;;;17.40;8.63;;;;;;;21.98;100.00;101541.34;4976064;28;20031;-55
2022/10/17 07:47:58;;;;;;;18.83;9.20;;;;;;;22.02;100.00;101552.56;4971617;28;20090;-53
2022/10/17 07:50:24;;;;;;;13.57;8.87;;;;;;;22.03;100.00;101557.78;4970226;28;20063;-53
2022/10/17 07:52:49;;;;;;;12.38;8.20;;;;;;;21.68;100.00;101591.66;4975150;28;20034;-51
2022/10/17 07:55:15;;;;;;;13.20;8.27;;;;;;;21.49;100.00;101632.72;4975168;28;20044;-53
2022/10/17 07:57:40;;;;;;;40.50;9.80;;;;;;;21.17;100.00;101646.09;4969424;28;20055;-51
2022/10/17 08:00:07;;;;;;;30.60;8.85;;;;;;;21.03;100.00;101660.03;4970259;28;20047;-54
2022/10/17 08:02:38;;;;;;;25.80;11.50;;;;;;;21.02;100.00;101665.72;4969055;28;20040;-54
2022/10/17 08:05:04;;;;;;;39.55;18.08;;;;;;;20.63;100.00;101678.03;4962373;28;20028;-53
2022/10/17 08:07:29;;;;;;;35.10;14.18;;;;;;;20.30;100.00;101703.22;4966398;28;20050;-55
2022/10/17 08:09:55;;;;;;;34.67;14.45;;;;;;;20.56;100.00;101680.09;4971070;28;20031;-53
2022/10/17 08:12:20;;;;;;;37.33;10.95;;;;;;;21.59;100.00;101661.97;4969186;28;20051;-55
2022/10/17 08:14:47;;;;;;;23.83;10.15;;;;;;;21.47;100.00;101655.84;4970353;28;20059;-54
2022/10/17 08:17:12;;;;;;;33.80;12.48;;;;;;;21.10;100.00;101661.78;4967627;28;20043;-55
2022/10/17 08:19:39;;;;;;;20.25;10.00;;;;;;;21.69;100.00;101636.03;4970179;28;20039;-52
2022/10/17 08:22:05;;;;;;;25.07;11.27;;;;;;;22.41;100.00;101625.16;4969718;28;20097;-57
2022/10/17 08:24:31;;;;;;;21.95;10.57;;;;;;;22.47;100.00;101629.63;4970103;28;20065;-53
2022/10/17 08:26:57;;;;;;;20.55;10.50;;;;;;;22.57;100.00;101634.34;4970544;28;20032;-52
2022/10/17 08:29:23;;;;;;;34.38;12.00;;;;;;;22.67;100.00;101652.72;4971288;28;20091;-53
2022/10/17 08:31:48;;;;;;;22.42;10.80;;;;;;;22.10;100.00;101674.66;4970820;28;20042;-52
2022/10/17 08:34:14;;;;;;;20.50;11.73;;;;;;;21.54;100.00;101705.47;4969563;28;20034;-51
2022/10/17 08:36:40;;;;;;;21.50;11.17;;;;;;;21.68;100.00;101721.47;4968119;28;20047;-55
2022/10/17 08:39:05;;;;;;;133.13;17.35;;;;;;;21.67;100.00;101723.38;4970074;28;20031;-54
2022/10/17 08:41:48;;;;;;;60.90;13.43;;;;;;;21.54;100.00;101756.31;4971411;28;20035;-53
2022/10/17 08:44:38;;;;;;;41.67;12.30;;;;;;;21.86;100.00;101751.13;4970862;28;20270;-53
2022/10/17 08:47:08;;;;;;;27.67;12.37;;;;;;;21.76;100.00;101742.84;4970810;28;20092;-56
2022/10/17 08:49:51;;;;;;;73.90;14.17;;;;;;;21.97;100.00;101718.63;4970246;28;20058;-57
2022/10/17 08:52:29;;;;;;;65.53;15.17;;;;;;;22.14;100.00;101694.88;4992645;28;20035;-55
2022/10/17 08:54:55;;;;;;;43.57;13.20;;;;;;;22.20;100.00;101704.78;4985337;28;20045;-57
2022/10/17 08:57:20;;;;;;;76.68;14.63;;;;;;;21.95;100.00;101713.41;4991145;28;20062;-56
2022/10/17 08:59:52;;;;;;;39.17;12.30;;;;;;;21.70;100.00;101686.69;4984303;28;20046;-54
2022/10/17 09:02:42;;;;;;;50.67;12.63;;;;;;;22.48;100.00;101669.41;4989749;28;20106;-56
2022/10/17 09:05:42;;;;;;;43.97;13.30;;;;;;;22.51;100.00;101679.84;4991835;28;20046;-56
2022/10/17 09:08:26;;;;;;;34.30;12.53;;;;;;;22.35;100.00;101670.59;4968120;28;20046;-57
2022/10/17 09:10:59;;;;;;;36.87;12.63;;;;;;;22.44;100.00;101669.09;4996597;28;20062;-56
2022/10/17 09:13:57;;;;;;;30.03;12.43;;;;;;;22.56;100.00;101671.69;5002412;28;20069;-56
2022/10/17 09:16:36;;;;;;;;;;;;;;;22.85;100.00;101673.34;5002607;28;20046;-54
2022/10/17 09:19:11;;;;;;;50.47;16.87;;;;;;;22.89;100.00;101680.75;5008801;28;19916;-56
2022/10/17 09:21:44;;;;;;;66.07;16.90;;;;;;;22.58;100.00;101693.22;4998732;28;20047;-57
2022/10/17 09:24:16;;;;;;;17.27;2.63;;;;;;;22.08;100.00;101693.16;5011516;28;20067;-56
2022/10/17 09:26:44;;;;;;;0.57;0.53;;;;;;;22.08;100.00;101712.22;5004734;28;20038;-56
2022/10/17 09:29:20;;;;;;;2.87;2.03;;;;;;;21.96;100.00;101731.41;5006686;28;20028;-56
2022/10/17 09:31:53;;;;;;;2.55;1.58;;;;;;;21.99;100.00;101754.59;4995838;28;20030;-55
2022/10/17 09:34:26;;;;;;;0.70;0.70;;;;;;;21.67;100.00;101763.38;4999835;28;20100;-54
2022/10/17 09:36:53;;;;;;;1.30;1.20;;;;;;;21.49;100.00;101759.81;5006233;28;20035;-57
2022/10/17 09:39:23;;;;;;;3.05;2.22;;;;;;;23.06;100.00;101729.72;5011755;28;20026;-56
2022/10/17 09:41:52;;;;;;;82.93;14.50;;;;;;;23.14;100.00;101694.88;5003130;28;20035;-55
2022/10/17 09:44:20;;;;;;;0.77;0.77;;;;;;;23.17;100.00;101686.16;5004884;28;20031;-56
2022/10/17 09:46:53;;;;;;;1.83;1.03;;;;;;;23.74;100.00;101716.63;5001095;28;20031;-55
2022/10/17 09:49:27;;;;;;;0.67;0.57;;;;;;;24.89;100.00;101686.78;4994101;28;20106;-55
2022/10/17 09:51:53;;;;;;;1.47;1.37;;;;;;;23.35;100.00;101687.69;5008239;28;20073;-56
2022/10/17 09:54:26;;;;;;;0.05;0.05;;;;;;;23.15;100.00;101699.25;4997188;28;20039;-56
2022/10/17 09:57:05;;;;;;;0.30;0.30;;;;;;;22.26;100.00;101718.47;4993232;28;20054;-56
2022/10/17 09:59:35;;;;;;;1.23;1.13;;;;;;;22.20;100.00;101707.50;4989882;28;20047;-56
2022/10/17 10:02:21;;;;;;;1.50;0.70;;;;;;;22.02;100.00;101721.41;4983044;28;20053;-54
2022/10/17 10:04:59;;;;;;;1.53;1.43;;;;;;;22.25;100.00;101722.25;4989753;28;20035;-56
2022/10/17 10:07:28;;;;;;;2.40;1.60;;;;;;;21.96;100.00;101731.41;4990729;28;20069;-56
2022/10/17 10:09:55;;;;;;;1.60;1.13;;;;;;;21.62;100.00;101726.81;4988817;28;20055;-55
2022/10/17 10:12:20;;;;;;;;;;;;;;;21.95;100.00;101732.47;4985637;28;20273;-53
2022/10/17 10:14:46;;;;;;;0.53;0.53;;;;;;;22.16;100.00;101736.31;4992591;28;19920;-56
2022/10/17 10:17:33;;;;;;;1.77;1.67;;;;;;;22.01;100.00;101739.66;4984796;28;20037;-52
2022/10/17 10:20:00;;;;;;;1.20;0.57;;;;;;;22.92;100.00;101750.31;4987347;28;20106;-51
2022/10/17 10:22:26;;;;;;;0.60;0.60;;;;;;;22.67;100.00;101745.41;4988126;28;20039;-56
2022/10/17 10:25:15;;;;;;;1.05;0.77;;;;;;;22.02;100.00;101756.81;4988668;28;20061;-57
2022/10/17 10:27:43;;;;;;;0.43;0.40;;;;;;;22.32;100.00;101758.31;4989281;28;20035;-54
2022/10/17 10:30:26;;;;;;;0.80;0.80;;;;;;;21.92;100.00;101766.50;4991136;28;20062;-55
2022/10/17 10:32:51;;;;;;;0.90;0.87;;;;;;;22.10;100.00;101780.91;4981003;28;20031;-55
2022/10/17 10:35:23;;;;;;;0.60;0.60;;;;;;;22.17;100.00;101795.19;4992069;28;20034;-53
2022/10/17 10:37:54;;;;;;;0.73;0.70;;;;;;;22.22;100.00;101796.31;4985723;28;20065;-55
2022/10/17 10:40:29;;;;;;;1.50;0.60;;;;;;;22.30;100.00;101801.31;4987098;28;20031;-55
2022/10/17 10:42:57;;;;;;;0.60;0.60;;;;;;;22.58;100.00;101810.44;4985558;28;20027;-57
2022/10/17 10:45:26;;;;;;;0.60;0.60;;;;;;;22.46;100.00;101815.97;4988032;28;20027;-57
2022/10/17 10:47:55;;;;;;;2.43;1.17;;;;;;;22.24;100.00;101824.94;4983483;28;20070;-55
2022/10/17 10:50:37;;;;;;;0.70;0.70;;;;;;;22.02;100.00;101831.16;4985193;28;20072;-57
2022/10/17 10:53:26;;;;;;;0.60;0.60;;;;;;;22.18;100.00;101840.41;4981413;28;20031;-53
2022/10/17 10:56:17;;;;;;;1.73;0.77;;;;;;;22.27;100.00;101845.44;4990001;28;20053;-53
2022/10/17 10:59:10;;;;;;;0.83;0.83;;;;;;;22.16;100.00;101845.28;4987731;28;20030;-58
2022/10/17 11:01:55;;;;;;;0.67;0.60;;;;;;;22.23;100.00;101858.72;4986883;28;20060;-57
2022/10/17 11:04:46;;;;;;;1.97;1.37;;;;;;;22.10;100.00;101853.63;4988215;28;20043;-55
2022/10/17 11:07:18;;;;;;;0.43;0.43;;;;;;;22.17;100.00;101851.56;4981083;28;20106;-49
2022/10/17 11:10:02;;;;;;;0.40;0.40;;;;;;;22.24;100.00;101851.38;4992782;28;20042;-56
2022/10/17 11:12:39;;;;;;;0.10;0.10;;;;;;;22.27;100.00;101853.59;4996464;28;20038;-56
2022/10/17 11:15:24;;;;;;;0.77;0.70;;;;;;;22.42;100.00;101856.56;4994977;28;20069;-56
2022/10/17 11:17:56;;;;;;;3.30;2.67;;;;;;;22.47;100.00;101855.81;4995395;28;20077;-57
2022/10/17 11:20:47;;;;;;;1.10;1.03;;;;;;;22.40;100.00;101863.31;4993997;28;20050;-58
2022/10/17 11:23:31;;;;;;;1.57;0.93;;;;;;;22.86;100.00;101860.44;4996226;28;20684;-56
2022/10/17 11:26:02;;;;;;;0.53;0.53;;;;;;;22.45;100.00;101866.94;4990366;28;20054;-54
2022/10/17 11:28:28;;;;;;;3.50;2.30;;;;;;;22.73;100.00;101867.09;4993109;28;20053;-56